Time;durP1;ratioP1;P1;durP2;ratioP2;P2;SDS_P1;SDS_P2;PMS_P1;PMS_P2;Temp;Humidity;BMP_temperature;BMP_pressure;BME280_temperature;BME280_humidity;BME280_pressure;Samples;Min_cycle;Max_cycle;Signal;HPM_P1;HPM_P2
2022/08/18 00:01:21;;;;;;;;;;;;;;;26.73;39.21;99369.19;4430082;32;37876;-82
2022/08/18 00:03:49;;;;;;;;;;;;;;;26.62;39.29;99365.38;4423219;32;37952;-81
2022/08/18 00:06:25;;;;;;;;;;;;;;;26.50;39.78;99373.19;4417595;32;37761;-80
2022/08/18 00:08:58;;;;;;;;;;;;;;;26.69;39.15;99368.53;4414799;32;36467;-80
2022/08/18 00:11:26;;;;;;;;;;;;;;;26.46;39.39;99356.56;4415153;32;38303;-80
2022/08/18 00:13:53;;;;;;;;;;;;;;;26.51;39.57;99366.91;4421018;32;38509;-81
2022/08/18 00:16:21;;;;;;;;;;;;;;;26.35;39.95;99359.78;4414444;32;39463;-81
2022/08/18 00:18:48;;;;;;;;;;;;;;;26.38;39.92;99354.31;4414440;32;37829;-81
2022/08/18 00:21:16;;;;;;;;;;;;;;;26.29;39.99;99360.16;4414249;32;37985;-80
2022/08/18 00:23:44;;;;;;;;;;;;;;;26.38;39.48;99359.63;4402041;32;39383;-81
2022/08/18 00:26:11;;;;;;;;;;;;;;;26.37;39.97;99363.22;4419902;32;39550;-82
2022/08/18 00:28:39;;;;;;;;;;;;;;;26.31;40.11;99358.25;4429642;32;36217;-81
2022/08/18 00:31:07;;;;;;;;;;;;;;;26.18;40.42;99351.94;4429529;32;39531;-81
2022/08/18 00:33:34;;;;;;;;;;;;;;;26.23;40.33;99352.56;4421322;32;38917;-81
2022/08/18 00:36:01;;;;;;;;;;;;;;;26.22;40.50;99358.78;4423229;32;38064;-81
2022/08/18 00:38:29;;;;;;;;;;;;;;;26.17;40.69;99355.53;4398990;32;36933;-82
2022/08/18 00:40:56;;;;;;;;;;;;;;;26.16;41.00;99356.47;4398023;32;38192;-82
2022/08/18 00:43:43;;;;;;;;;;;;;;;25.83;41.79;99362.69;4397596;32;38429;-82
2022/08/18 00:46:13;;;;;;;;;;;;;;;26.05;41.09;99361.53;4396889;32;38746;-81
2022/08/18 00:48:40;;;;;;;;;;;;;;;25.85;41.56;99360.84;4397455;32;36374;-82
2022/08/18 00:51:18;;;;;;;;;;;;;;;25.88;41.16;99359.81;4397300;32;37865;-82
2022/08/18 00:53:48;;;;;;;;;;;;;;;25.93;41.27;99357.75;4397180;32;38780;-81
2022/08/18 00:56:21;;;;;;;;;;;;;;;25.61;42.73;99362.13;4397647;32;38763;-81
2022/08/18 00:58:49;;;;;;;;;;;;;;;25.94;41.65;99368.28;4387817;32;36492;-81
2022/08/18 01:01:18;;;;;;;;;;;;;;;25.87;41.94;99368.69;4416056;32;38837;-81
2022/08/18 01:03:51;;;;;;;;;;;;;;;25.73;41.99;99369.41;4428102;32;39204;-81
2022/08/18 01:06:22;;;;;;;;;;;;;;;25.54;42.75;99366.03;4427945;32;39721;-81
2022/08/18 01:08:51;;;;;;;;;;;;;;;25.56;42.91;99365.03;4426597;32;38043;-81
2022/08/18 01:11:18;;;;;;;;;;;;;;;25.68;42.22;99369.63;4422202;32;38313;-81
2022/08/18 01:13:46;;;;;;;;;;;;;;;25.59;42.62;99380.75;4428985;32;38443;-81
2022/08/18 01:21:50;;;;;;;;;;;;;;;25.44;42.79;99382.41;4413924;32;39001;-81
2022/08/18 01:25:58;;;;;;;;;;;;;;;25.40;43.04;99380.88;4415766;32;38942;-81
2022/08/18 01:27:10;;;;;;;;;;;;;;;25.58;42.72;99383.47;4411911;32;39137;-80
2022/08/18 01:29:37;;;;;;;;;;;;;;;25.55;42.80;99383.63;4415911;32;36741;-80
2022/08/18 01:32:11;;;;;;;;;;;;;;;25.39;43.27;99384.44;4411445;32;36618;-80
2022/08/18 01:34:38;;;;;;;;;;;;;;;25.30;43.19;99384.91;4413675;32;38095;-81
2022/08/18 01:37:05;;;;;;;;;;;;;;;25.41;43.16;99382.56;4413627;32;40065;-81
2022/08/18 01:39:33;;;;;;;;;;;;;;;25.36;43.31;99381.09;4412598;32;36840;-81
2022/08/18 01:42:20;;;;;;;;;;;;;;;25.27;43.26;99379.78;4412770;32;38812;-81
2022/08/18 01:44:50;;;;;;;;;;;;;;;25.35;43.32;99384.69;4413746;32;38217;-80
2022/08/18 01:47:18;;;;;;;;;;;;;;;25.26;43.50;99388.66;4410821;32;37379;-80
2022/08/18 01:49:46;;;;;;;;;;;;;;;25.15;44.01;99388.38;4413236;32;36831;-80
2022/08/18 01:52:18;;;;;;;;;;;;;;;25.15;43.70;99385.72;4413147;32;38303;-81
2022/08/18 01:54:46;;;;;;;;;;;;;;;25.18;43.61;99389.06;4423040;32;39045;-82
2022/08/18 01:57:15;;;;;;;;;;;;;;;25.09;43.77;99393.94;4408370;32;38569;-81
2022/08/18 01:59:43;;;;;;;;;;;;;;;25.27;43.67;99398.31;4407869;32;36912;-80
2022/08/18 02:02:12;;;;;;;;;;;;;;;25.09;43.83;99393.94;4412227;32;38999;-81
2022/08/18 02:04:45;;;;;;;;;;;;;;;25.16;43.67;99395.38;4409845;32;38155;-80
2022/08/18 02:07:13;;;;;;;;;;;;;;;25.05;44.09;99391.47;4412813;32;38274;-80
2022/08/18 02:09:41;;;;;;;;;;;;;;;24.99;44.43;99396.22;4408354;32;36787;-79
2022/08/18 02:12:11;;;;;;;;;;;;;;;24.94;44.69;99380.53;4415315;32;38447;-80
2022/08/18 02:14:38;;;;;;;;;;;;;;;24.98;44.52;99384.75;4415595;32;37828;-79
2022/08/18 02:17:06;;;;;;;;;;;;;;;24.97;44.65;99377.72;4415188;32;38273;-80
2022/08/18 02:19:39;;;;;;;;;;;;;;;24.93;44.44;99386.78;4404828;32;36311;-82
2022/08/18 02:22:06;;;;;;;;;;;;;;;24.78;44.95;99387.53;4413824;32;38194;-81
2022/08/18 02:24:34;;;;;;;;;;;;;;;24.90;44.51;99386.94;4439549;32;39026;-80
2022/08/18 02:27:04;;;;;;;;;;;;;;;24.89;44.48;99387.00;4438384;32;39337;-81
2022/08/18 02:29:32;;;;;;;;;;;;;;;24.92;44.67;99390.38;4429364;32;36457;-81
2022/08/18 02:31:59;;;;;;;;;;;;;;;24.91;44.74;99398.37;4430127;32;39786;-80
2022/08/18 02:34:27;;;;;;;;;;;;;;;24.58;45.95;99405.25;4430671;32;39226;-81
2022/08/18 02:36:58;;;;;;;;;;;;;;;24.70;45.18;99400.31;4430099;32;38508;-81
2022/08/18 02:39:26;;;;;;;;;;;;;;;24.64;45.53;99397.97;4429174;32;37268;-81
2022/08/18 02:41:54;;;;;;;;;;;;;;;24.82;45.28;99389.97;4424770;32;38526;-80
2022/08/18 02:44:21;;;;;;;;;;;;;;;24.74;45.42;99391.28;4424639;32;39503;-80
2022/08/18 02:46:52;;;;;;;;;;;;;;;24.70;45.38;99400.31;4419494;32;39260;-80
2022/08/18 02:49:20;;;;;;;;;;;;;;;24.63;45.78;99398.87;4430225;32;36687;-80
2022/08/18 02:51:48;;;;;;;;;;;;;;;24.72;45.32;99403.72;4425943;32;38935;-81
2022/08/18 02:54:17;;;;;;;;;;;;;;;24.56;45.91;99404.47;4423664;32;37876;-80
2022/08/18 02:56:45;;;;;;;;;;;;;;;24.75;45.63;99400.91;4428137;32;39195;-79
2022/08/18 02:59:14;;;;;;;;;;;;;;;24.67;46.09;99411.03;4422118;32;36456;-79
2022/08/18 03:01:43;;;;;;;;;;;;;;;24.59;46.36;99406.09;4429446;32;38168;-80
2022/08/18 03:04:13;;;;;;;;;;;;;;;24.65;46.19;99408.47;4430570;32;37952;-80
2022/08/18 03:06:40;;;;;;;;;;;;;;;24.50;46.58;99415.34;4428524;32;38860;-80
2022/08/18 03:09:08;;;;;;;;;;;;;;;24.35;47.08;99414.25;4429343;32;36157;-80
2022/08/18 03:11:36;;;;;;;;;;;;;;;24.44;46.93;99420.94;4424281;32;37847;-80
2022/08/18 03:14:04;;;;;;;;;;;;;;;24.37;47.28;99408.88;4417875;32;37863;-80
2022/08/18 03:16:32;;;;;;;;;;;;;;;24.60;46.89;99413.09;4422288;32;38783;-80
2022/08/18 03:19:00;;;;;;;;;;;;;;;24.53;47.16;99420.47;4421441;32;36875;-80
2022/08/18 03:21:28;;;;;;;;;;;;;;;24.65;46.68;99424.34;4419937;32;38595;-80
2022/08/18 03:23:55;;;;;;;;;;;;;;;24.68;46.76;99424.19;4415314;32;38163;-82
2022/08/18 03:26:28;;;;;;;;;;;;;;;24.55;46.86;99415.97;4421564;32;38024;-81
2022/08/18 03:28:56;;;;;;;;;;;;;;;24.53;47.11;99417.84;4430320;32;37562;-82
2022/08/18 03:31:25;;;;;;;;;;;;;;;24.60;46.84;99421.03;4416861;32;37681;-81
2022/08/18 03:33:54;;;;;;;;;;;;;;;24.53;47.01;99415.19;4437302;32;38091;-82
2022/08/18 03:36:27;;;;;;;;;;;;;;;24.42;47.43;99417.50;4421892;32;38256;-81
2022/08/18 03:38:54;;;;;;;;;;;;;;;24.50;47.15;99417.97;4430393;32;36835;-81
2022/08/18 03:41:22;;;;;;;;;;;;;;;24.47;47.28;99407.53;4430065;32;37934;-81
2022/08/18 03:44:10;;;;;;;;;;;;;;;24.37;47.84;99408.88;4428466;32;38185;-80
2022/08/18 03:46:39;;;;;;;;;;;;;;;24.46;47.66;99419.06;4424320;32;38610;-80
2022/08/18 03:49:06;;;;;;;;;;;;;;;24.38;48.05;99421.19;4416783;32;37422;-81
2022/08/18 03:51:35;;;;;;;;;;;;;;;24.36;48.13;99412.47;4415002;32;38063;-81
2022/08/18 03:54:03;;;;;;;;;;;;;;;24.41;48.03;99414.87;4419087;32;38867;-80
2022/08/18 03:56:34;;;;;;;;;;;;;;;24.39;48.10;99412.31;4424370;32;38311;-80
2022/08/18 03:59:07;;;;;;;;;;;;;;;24.54;47.84;99409.00;4422966;32;37200;-81
2022/08/18 04:01:38;;;;;;;;;;;;;;;24.55;47.76;99418.62;4426558;32;37461;-81
2022/08/18 04:04:07;;;;;;;;;;;;;;;24.59;47.86;99420.19;4421865;32;40040;-80
2022/08/18 04:06:57;;;;;;;;;;;;;;;24.56;48.15;99419.47;4426655;32;38293;-80
2022/08/18 04:09:27;;;;;;;;;;;;;;;24.53;48.51;99415.19;4427347;32;36885;-79
2022/08/18 04:11:55;;;;;;;;;;;;;;;24.44;48.70;99413.00;4419857;32;38992;-80
2022/08/18 04:14:23;;;;;;;;;;;;;;;24.48;48.98;99417.22;4423189;32;36919;-80
2022/08/18 04:16:51;;;;;;;;;;;;;;;24.50;49.14;99425.91;4419643;32;39321;-80
2022/08/18 04:19:19;;;;;;;;;;;;;;;24.27;49.94;99419.03;4416107;32;37689;-80
2022/08/18 04:21:54;;;;;;;;;;;;;;;24.43;49.42;99424.50;4423113;32;38143;-80
2022/08/18 04:24:22;;;;;;;;;;;;;;;24.69;48.66;99414.44;4426730;32;37873;-80
2022/08/18 04:26:49;;;;;;;;;;;;;;;24.69;48.85;99414.44;4419645;32;38919;-80
2022/08/18 04:29:18;;;;;;;;;;;;;;;24.58;49.33;99413.19;4429665;32;36588;-80
2022/08/18 04:31:46;;;;;;;;;;;;;;;24.63;49.46;99414.75;4428172;32;37628;-80
2022/08/18 04:34:13;;;;;;;;;;;;;;;24.61;49.74;99422.78;4415998;32;38959;-80
2022/08/18 04:36:41;;;;;;;;;;;;;;;24.72;49.24;99414.31;4429322;32;38159;-80
2022/08/18 04:39:09;;;;;;;;;;;;;;;24.69;49.52;99409.16;4401798;32;37065;-80
2022/08/18 04:41:37;;;;;;;;;;;;;;;24.76;49.50;99399.97;4399586;32;38095;-81
2022/08/18 04:44:07;;;;;;;;;;;;;;;24.74;50.03;99408.00;4406660;32;37543;-80
2022/08/18 04:46:38;;;;;;;;;;;;;;;24.69;50.68;99419.75;4402919;32;39270;-81
2022/08/18 04:49:08;;;;;;;;;;;;;;;24.91;49.85;99420.41;4411802;32;37613;-80
2022/08/18 04:51:37;;;;;;;;;;;;;;;24.99;49.81;99417.41;4409577;32;38256;-80
2022/08/18 04:54:24;;;;;;;;;;;;;;;25.04;49.82;99416.22;4412709;32;38012;-81
2022/08/18 04:56:52;;;;;;;;;;;;;;;25.12;49.98;99417.62;4411025;32;38728;-82
2022/08/18 04:59:19;;;;;;;;;;;;;;;25.14;50.31;99415.78;4405386;32;37702;-80
2022/08/18 05:01:46;;;;;;;;;;;;;;;25.22;50.17;99417.13;4398827;32;38247;-79
2022/08/18 05:04:15;;;;;;;;;;;;;;;25.26;50.44;99415.16;4399032;32;38124;-80
2022/08/18 05:06:43;;;;;;;;;;;;;;;25.33;50.59;99415.69;4405992;32;38239;-80
2022/08/18 05:09:11;;;;;;;;;;;;;;;25.27;50.85;99411.56;4413849;32;36560;-80
2022/08/18 05:11:43;;;;;;;;;;;;;;;25.40;50.57;99407.37;4413756;32;39212;-80
2022/08/18 05:14:10;;;;;;;;;;;;;;;25.47;50.78;99403.47;4412456;32;38377;-77
2022/08/18 05:16:38;;;;;;;;;;;;;;;25.57;50.75;99402.97;4409063;32;38342;-78
2022/08/18 05:19:18;;;;;;;;;;;;;;;25.67;50.94;99405.06;4410641;32;36702;-78
2022/08/18 05:21:48;;;;;;;;;;;;;;;25.67;51.52;99409.50;4406517;32;39037;-80
2022/08/18 05:24:18;;;;;;;;;;;;;;;25.76;51.89;99409.03;4412147;32;37821;-79
2022/08/18 05:26:46;;;;;;;;;;;;;;;25.61;53.43;99400.06;4414049;32;39072;-80
2022/08/18 05:29:14;;;;;;;;;;;;;;;25.70;53.93;99414.66;4408644;32;36766;-78
2022/08/18 05:31:50;;;;;;;;;;;;;;;25.76;54.09;99414.31;4400634;32;37705;-79
2022/08/18 05:34:20;;;;;;;;;;;;;;;25.93;53.32;99419.59;4426224;32;39398;-80
2022/08/18 05:36:47;;;;;;;;;;;;;;;26.18;52.69;99420.94;4415333;32;38865;-81
2022/08/18 05:39:20;;;;;;;;;;;;;;;26.20;52.84;99419.06;4415610;32;37011;-80
2022/08/18 05:41:47;;;;;;;;;;;;;;;26.29;52.37;99418.56;4413746;32;38951;-80
2022/08/18 05:44:17;;;;;;;;;;;;;;;26.54;51.76;99417.19;4439971;32;37624;-81
2022/08/18 05:46:51;;;;;;;;;;;;;;;26.63;51.62;99419.31;4413383;32;38465;-80
2022/08/18 05:49:20;;;;;;;;;;;;;;;26.56;51.87;99420.63;4415687;32;36586;-81
2022/08/18 05:51:55;;;;;;;;;;;;;;;26.69;51.65;99421.63;4409951;32;38740;-80
2022/08/18 05:57:11;;;;;;;;;;;;;;;26.99;50.59;99418.16;4422189;32;36947;-80
2022/08/18 05:59:39;;;;;;;;;;;;;;;27.16;49.79;99419.88;4430622;32;38367;-80
2022/08/18 06:02:11;;;;;;;;;;;;;;;27.39;48.85;99423.81;4430495;32;38308;-80
2022/08/18 06:04:44;;;;;;;;;;;;;;;27.20;49.54;99416.91;4429524;32;38855;-80
2022/08/18 06:07:14;;;;;;;;;;;;;;;27.21;49.16;99425.75;4429212;32;38195;-80
2022/08/18 06:09:49;;;;;;;;;;;;;;;27.39;49.02;99426.47;4435799;32;36424;-80
2022/08/18 06:12:21;;;;;;;;;;;;;;;27.58;48.28;99421.75;4443699;32;37603;-81
2022/08/18 06:14:49;;;;;;;;;;;;;;;27.66;47.86;99435.41;4446759;32;38137;-80
2022/08/18 06:17:31;;;;;;;;;;;;;;;27.64;47.61;99432.00;4418056;32;38507;-80
2022/08/18 06:20:08;;;;;;;;;;;;;;;27.88;46.99;99434.12;4414846;32;37915;-80
2022/08/18 06:22:55;;;;;;;;;;;;;;;27.98;46.50;99429.94;4429385;32;38509;-79
2022/08/18 06:25:34;;;;;;;;;;;;;;;27.97;46.76;99428.25;4430269;32;37935;-79
2022/08/18 06:28:09;;;;;;;;;;;;;;;27.98;46.82;99430.81;4335366;32;39441;-80
2022/08/18 06:30:40;;;;;;;;;;;;;;;28.16;46.47;99436.78;4432917;32;37061;-78
2022/08/18 06:33:30;;;;;;;;;;;;;;;28.40;45.51;99425.53;4445550;32;39051;-80
2022/08/18 06:36:01;;;;;;;;;;;;;;;28.32;46.25;99422.50;4444083;32;38819;-80
2022/08/18 06:38:47;;;;;;;;;;;;;;;28.62;45.40;99430.34;4441102;32;39714;-78
2022/08/18 06:41:16;;;;;;;;;;;;;;;28.64;45.32;99423.97;4437745;32;36692;-78
2022/08/18 06:44:07;;;;;;;;;;;;;;;28.97;44.92;99436.00;4445673;32;38234;-78
2022/08/18 06:46:39;;;;;;;;;;;;;;;29.38;43.95;99427.94;4437672;32;38066;-80
2022/08/18 06:49:08;;;;;;;;;;;;;;;29.89;43.22;99429.78;4440259;32;38408;-79
2022/08/18 06:51:36;;;;;;;;;;;;;;;30.17;41.95;99422.50;4444203;32;37388;-78
2022/08/18 06:54:07;;;;;;;;;;;;;;;30.55;41.21;99423.25;4444386;32;37425;-80
2022/08/18 06:56:44;;;;;;;;;;;;;;;30.54;41.03;99416.22;4441779;32;38988;-78
2022/08/18 06:59:21;;;;;;;;;;;;;;;31.08;40.04;99419.41;4437197;32;38308;-78
2022/08/18 07:01:52;;;;;;;;;;;;;;;31.45;39.61;99418.31;4445725;32;37280;-78
2022/08/18 07:04:29;;;;;;;;;;;;;;;31.61;39.14;99415.31;4441326;32;38891;-78
2022/08/18 07:06:56;;;;;;;;;;;;;;;31.81;39.08;99408.38;4436205;32;38190;-78
2022/08/18 07:09:24;;;;;;;;;;;;;;;32.26;37.64;99408.41;4430050;32;39544;-78
2022/08/18 07:11:59;;;;;;;;;;;;;;;32.16;37.84;99407.44;4430119;32;36591;-77
2022/08/18 07:14:27;;;;;;;;;;;;;;;32.31;37.67;99419.59;4432104;32;37632;-78
2022/08/18 07:17:09;;;;;;;;;;;;;;;32.69;36.99;99412.97;4437268;32;39176;-79
2022/08/18 07:19:36;;;;;;;;;;;;;;;32.61;38.20;99412.72;4445850;32;39366;-79
2022/08/18 07:22:05;;;;;;;;;;;;;;;33.15;35.62;99406.44;4440940;32;36416;-79
2022/08/18 07:24:36;;;;;;;;;;;;;;;33.12;36.09;99406.69;4436788;32;38888;-79
2022/08/18 07:27:06;;;;;;;;;;;;;;;33.42;35.59;99413.13;4440924;32;38389;-81
2022/08/18 07:29:35;;;;;;;;;;;;;;;33.63;35.45;99405.09;4418469;32;40432;-80
2022/08/18 07:32:09;;;;;;;;;;;;;;;33.96;35.31;99412.03;4434276;32;37867;-77
2022/08/18 07:34:50;;;;;;;;;;;;;;;34.15;33.73;99401.38;4429698;32;38082;-77
2022/08/18 07:37:23;;;;;;;;;;;;;;;34.31;32.66;99406.25;4424784;32;39678;-77
2022/08/18 07:40:13;;;;;;;;;;;;;;;34.47;32.73;99397.66;4445239;32;39120;-78
2022/08/18 07:42:47;;;;;;;;;;;;;;;34.39;32.12;99392.09;4441985;32;36524;-78
2022/08/18 07:45:40;;;;;;;;;;;;;;;34.29;32.52;99407.34;4437841;32;38850;-77
2022/08/18 07:48:11;;;;;;;;;;;;;;;34.74;32.26;99412.28;4423515;32;38045;-78
2022/08/18 07:51:02;;;;;;;;;;;;;;;34.64;31.76;99407.72;4422707;32;38369;-77
2022/08/18 07:53:53;;;;;;;;;;;;;;;34.99;32.31;99422.47;4429798;32;36583;-77
2022/08/18 07:56:36;;;;;;;;;;;;;;;35.14;31.70;99426.47;4425888;32;37626;-80
2022/08/18 07:59:24;;;;;;;;;;;;;;;35.14;31.45;99431.00;4428034;32;37543;-79
2022/08/18 08:01:58;;;;;;;;;;;;;;;35.35;31.16;99428.13;4408114;32;38360;-78
2022/08/18 08:04:38;;;;;;;;;;;;;;;35.26;31.84;99431.69;4424655;32;36768;-80
2022/08/18 08:07:14;;;;;;;;;;;;;;;35.46;30.63;99440.59;4423930;32;38368;-76
2022/08/18 08:10:02;;;;;;;;;;;;;;;35.75;29.49;99437.87;4421142;32;38248;-77
2022/08/18 08:12:48;;;;;;;;;;;;;;;35.66;30.25;99447.66;4415463;32;38584;-77
2022/08/18 08:15:23;;;;;;;;;;;;;;;35.74;30.13;99461.25;4427685;32;37076;-77
2022/08/18 08:17:56;;;;;;;;;;;;;;;35.81;30.98;99458.84;4428421;32;38027;-77
2022/08/18 08:20:32;;;;;;;;;;;;;;;35.81;30.42;99462.38;4412841;32;38260;-78
2022/08/18 08:23:16;;;;;;;;;;;;;;;35.81;31.53;99461.53;4412982;32;39791;-78
2022/08/18 08:25:46;;;;;;;;;;;;;;;36.18;29.34;99468.78;4425866;32;36738;-78
2022/08/18 08:28:23;;;;;;;;;;;;;;;36.41;29.38;99462.00;4429641;32;38930;-78
2022/08/18 08:30:54;;;;;;;;;;;;;;;36.46;29.89;99457.00;4423224;32;38573;-78
2022/08/18 08:33:41;;;;;;;;;;;;;;;36.49;29.25;99453.16;4412795;32;38956;-79
2022/08/18 08:36:20;;;;;;;;;;;;;;;36.50;28.81;99450.31;4420678;32;36853;-78
2022/08/18 08:38:53;;;;;;;;;;;;;;;36.90;27.95;99449.06;4421167;32;39049;-78
2022/08/18 08:41:26;;;;;;;;;;;;;;;36.52;28.28;99451.03;4417033;32;38477;-81
2022/08/18 08:44:02;;;;;;;;;;;;;;;36.61;28.39;99443.06;4413934;32;38082;-81
2022/08/18 08:46:32;;;;;;;;;;;;;;;37.18;27.80;99435.53;4421650;32;37632;-80
2022/08/18 08:49:01;;;;;;;;;;;;;;;36.80;28.20;99432.13;4416095;32;37903;-81
2022/08/18 08:51:31;;;;;;;;;;;;;;;37.03;27.93;99431.69;4415071;32;37958;-81
2022/08/18 08:54:10;;;;;;;;;;;;;;;37.20;27.72;99433.50;4428408;32;38678;-83
2022/08/18 08:56:44;;;;;;;;;;;;;;;37.21;27.48;99432.53;4422863;32;37369;-82
2022/08/18 08:59:13;;;;;;;;;;;;;;;37.42;25.49;99426.75;4417475;32;38250;-81
2022/08/18 09:01:43;;;;;;;;;;;;;;;37.36;26.78;99421.97;4414284;32;37857;-80
2022/08/18 09:04:13;;;;;;;;;;;;;;;37.65;26.24;99422.56;4414119;32;38851;-80
2022/08/18 09:06:41;;;;;;;;;;;;;;;37.60;26.68;99429.44;4420586;32;36921;-81
2022/08/18 09:09:43;;;;;;;;;;;;;;;37.71;25.98;99421.06;4431018;32;38913;-81
2022/08/18 09:12:11;;;;;;;;;;;;;;;37.77;25.61;99423.13;4385166;32;37883;-80
2022/08/18 09:14:41;;;;;;;;;;;;;;;37.68;26.31;99419.53;4423834;32;38650;-80
2022/08/18 09:17:22;;;;;;;;;;;;;;;37.73;26.31;99419.06;4430507;32;37563;-80
2022/08/18 09:20:06;;;;;;;;;;;;;;;37.74;26.07;99409.94;4440180;32;37901;-80
2022/08/18 09:22:33;;;;;;;;;;;;;;;37.58;26.03;99412.53;4437244;32;37923;-80
2022/08/18 09:25:01;;;;;;;;;;;;;;;37.51;26.25;99411.50;4444188;32;38656;-80
2022/08/18 09:27:31;;;;;;;;;;;;;;;37.54;26.01;99412.03;4416553;32;36537;-81
2022/08/18 09:30:37;;;;;;;;;;;;;;;37.57;27.74;99411.72;4415484;32;37643;-80
2022/08/18 09:33:18;;;;;;;;;;;;;;;37.76;26.48;99413.34;4415364;32;38059;-80
2022/08/18 09:35:45;;;;;;;;;;;;;;;37.61;26.52;99415.78;4400137;32;38556;-80
2022/08/18 09:41:30;;;;;;;;;;;;;;;37.95;26.09;99400.63;4403910;32;39060;-82
2022/08/18 09:44:11;;;;;;;;;;;;;;;37.90;25.38;99396.50;4428618;32;39426;-81
2022/08/18 09:46:59;;;;;;;;;;;;;;;38.14;25.26;99389.56;4422202;32;39106;-80
2022/08/18 09:49:27;;;;;;;;;;;;;;;37.89;26.06;99381.31;4423593;32;36668;-81
2022/08/18 09:51:57;;;;;;;;;;;;;;;38.46;25.42;99377.16;4426370;32;38063;-81
2022/08/18 09:54:26;;;;;;;;;;;;;;;38.36;24.10;99366.47;4433160;32;38856;-81
2022/08/18 09:57:02;;;;;;;;;;;;;;;38.10;25.33;99358.44;4438830;32;38924;-83
2022/08/18 09:59:31;;;;;;;;;;;;;;;38.03;25.17;99365.50;4424487;32;36637;-80
2022/08/18 10:02:05;;;;;;;;;;;;;;;38.37;24.45;99358.22;4423972;32;38794;-82
2022/08/18 10:04:49;;;;;;;;;;;;;;;38.53;24.76;99351.13;4424345;32;37958;-81
2022/08/18 10:07:19;;;;;;;;;;;;;;;38.54;24.79;99348.25;4419163;32;39860;-81
2022/08/18 10:09:53;;;;;;;;;;;;;;;38.61;24.46;99353.84;4424785;32;37201;-80
2022/08/18 10:12:24;;;;;;;;;;;;;;;38.65;24.37;99336.28;4429829;32;37846;-81
2022/08/18 10:15:11;;;;;;;;;;;;;;;38.76;23.66;99345.91;4429432;32;38385;-80
2022/08/18 10:17:41;;;;;;;;;;;;;;;38.84;23.99;99349.50;4422648;32;39386;-81
2022/08/18 10:20:24;;;;;;;;;;;;;;;38.94;23.41;99343.91;4422375;32;37722;-82
2022/08/18 10:22:53;;;;;;;;;;;;;;;39.02;23.91;99345.75;4414442;32;38202;-81
2022/08/18 10:25:30;;;;;;;;;;;;;;;39.13;23.43;99353.53;4407830;32;38568;-81
2022/08/18 10:28:00;;;;;;;;;;;;;;;39.12;22.66;99348.28;4415590;32;38456;-81
2022/08/18 10:30:29;;;;;;;;;;;;;;;39.19;22.78;99352.84;4421892;32;34522;-81
2022/08/18 10:33:36;;;;;;;;;;;;;;;39.13;22.66;99348.13;4430999;32;37533;-81
2022/08/18 10:36:05;;;;;;;;;;;;;;;39.49;21.50;99347.75;4418886;32;36836;-82
2022/08/18 10:38:42;;;;;;;;;;;;;;;39.18;22.81;99345.72;4424600;32;39687;-81
2022/08/18 10:41:20;;;;;;;;;;;;;;;39.13;21.75;99348.13;4422348;32;37138;-82
2022/08/18 10:43:49;;;;;;;;;;;;;;;38.91;22.89;99343.41;4426192;32;37874;-83
2022/08/18 10:46:53;;;;;;;;;;;;;;;38.72;23.30;99337.28;4426391;32;39786;-81
2022/08/18 10:49:24;;;;;;;;;;;;;;;38.96;24.01;99330.19;4419378;32;39895;-82
2022/08/18 10:52:08;;;;;;;;;;;;;;;38.93;22.73;99330.53;4413739;32;36563;-82
2022/08/18 10:54:45;;;;;;;;;;;;;;;38.78;22.54;99328.50;4416117;32;38399;-81
2022/08/18 10:57:20;;;;;;;;;;;;;;;38.57;21.80;99328.16;4423259;32;38519;-81
2022/08/18 10:59:58;;;;;;;;;;;;;;;38.68;21.75;99333.22;4429991;32;39308;-80
2022/08/18 11:02:33;;;;;;;;;;;;;;;38.63;21.95;99330.19;4424854;32;37051;-80
2022/08/18 11:05:03;;;;;;;;;;;;;;;38.77;23.00;99340.34;4414356;32;37833;-81
2022/08/18 11:07:34;;;;;;;;;;;;;;;38.48;22.01;99331.84;4413932;32;38083;-80
2022/08/18 11:10:17;;;;;;;;;;;;;;;38.44;23.26;99325.94;4417147;32;39330;-80
2022/08/18 11:13:16;;;;;;;;;;;;;;;38.69;22.48;99323.25;4421465;32;36156;-81
2022/08/18 11:15:46;;;;;;;;;;;;;;;38.48;21.91;99326.44;4427385;32;38249;-81
2022/08/18 11:18:28;;;;;;;;;;;;;;;39.00;22.06;99320.75;4422066;32;38487;-79
2022/08/18 11:21:15;;;;;;;;;;;;;;;38.50;23.25;99325.25;4403210;32;38142;-79
2022/08/18 11:23:43;;;;;;;;;;;;;;;38.95;21.67;99312.28;4401508;32;36627;-79
2022/08/18 11:26:14;;;;;;;;;;;;;;;38.45;23.60;99315.97;4406149;32;38045;-80
2022/08/18 11:28:45;;;;;;;;;;;;;;;38.72;23.00;99312.94;4399721;32;37753;-81
2022/08/18 11:31:12;;;;;;;;;;;;;;;38.82;21.90;99307.34;4403511;32;39240;-80
2022/08/18 11:33:41;;;;;;;;;;;;;;;38.59;21.82;99297.22;4401316;32;36427;-81
2022/08/18 11:36:09;;;;;;;;;;;;;;;38.37;22.40;99287.91;4404830;32;38012;-82
2022/08/18 11:38:37;;;;;;;;;;;;;;;38.43;22.11;99291.78;4400204;32;38295;-81
2022/08/18 11:41:09;;;;;;;;;;;;;;;38.95;21.31;99290.63;4412426;32;38650;-81
2022/08/18 11:43:39;;;;;;;;;;;;;;;38.29;22.41;99268.94;4413550;32;37200;-82
2022/08/18 11:46:14;;;;;;;;;;;;;;;38.56;21.50;99275.91;4408074;32;38024;-81
2022/08/18 11:48:44;;;;;;;;;;;;;;;38.35;22.79;99289.03;4409232;32;39240;-81
2022/08/18 11:51:19;;;;;;;;;;;;;;;38.57;21.75;99279.44;4414091;32;39204;-81
2022/08/18 11:53:52;;;;;;;;;;;;;;;38.53;22.25;99275.41;4411506;32;37252;-80
2022/08/18 11:56:29;;;;;;;;;;;;;;;38.09;21.84;99270.25;4407991;32;38210;-81
2022/08/18 11:59:20;;;;;;;;;;;;;;;38.52;21.53;99262.91;4414368;32;38091;-80
2022/08/18 12:01:49;;;;;;;;;;;;;;;38.56;20.84;99269.66;4411668;32;39187;-82
2022/08/18 12:04:28;;;;;;;;;;;;;;;38.77;21.65;99267.28;4405866;32;37307;-82
2022/08/18 12:07:03;;;;;;;;;;;;;;;38.75;21.29;99266.59;4399423;32;38563;-81
2022/08/18 12:09:34;;;;;;;;;;;;;;;38.83;21.44;99261.22;4399151;32;38875;-81
2022/08/18 12:12:25;;;;;;;;;;;;;;;38.81;21.68;99257.78;4192367;32;10001124;-83
2022/08/18 12:15:13;;;;;;;;;;;;;;;38.61;21.62;99256.44;4419207;32;37014;-83
2022/08/18 12:17:50;;;;;;;;;;;;;;;38.58;21.86;99251.41;4426404;32;37655;-81
2022/08/18 12:20:19;;;;;;;;;;;;;;;38.73;21.88;99238.84;4429678;32;38238;-81
2022/08/18 12:22:48;;;;;;;;;;;;;;;39.15;21.14;99228.81;4420655;32;39691;-82
2022/08/18 12:25:16;;;;;;;;;;;;;;;38.58;21.71;99224.34;4427424;32;37416;-81
2022/08/18 12:27:54;;;;;;;;;;;;;;;38.94;22.14;99223.97;4426744;32;38593;-81
2022/08/18 12:30:22;;;;;;;;;;;;;;;38.77;21.25;99221.28;4427506;32;39372;-82
2022/08/18 12:32:52;;;;;;;;;;;;;;;38.56;21.58;99223.66;4422187;32;38561;-82
2022/08/18 12:35:39;;;;;;;;;;;;;;;38.64;21.79;99210.13;4425019;32;36499;-83
2022/08/18 12:38:08;;;;;;;;;;;;;;;38.64;21.85;99212.81;4425666;32;38393;-82
2022/08/18 12:40:40;;;;;;;;;;;;;;;38.22;21.36;99219.22;4425424;32;37215;-82
2022/08/18 12:43:07;;;;;;;;;;;;;;;38.22;21.21;99224.63;4427568;32;39230;-83
2022/08/18 12:45:36;;;;;;;;;;;;;;;38.10;22.23;99231.37;4425633;32;38564;-82
2022/08/18 12:48:05;;;;;;;;;;;;;;;38.30;22.02;99221.13;4429069;32;38227;-82
2022/08/18 12:50:33;;;;;;;;;;;;;;;38.82;21.99;99232.41;4425639;32;38320;-82
2022/08/18 12:53:21;;;;;;;;;;;;;;;37.95;22.46;99233.06;4425467;32;38235;-82
2022/08/18 12:56:11;;;;;;;;;;;;;;;37.42;22.43;99241.28;4425969;32;36625;-82
2022/08/18 12:58:39;;;;;;;;;;;;;;;38.13;21.61;99250.84;4426341;32;38532;-81
2022/08/18 13:01:06;;;;;;;;;;;;;;;38.58;21.39;99246.84;4428179;32;39175;-80
2022/08/18 13:03:34;;;;;;;;;;;;;;;38.59;21.55;99243.09;4428489;32;38640;-80
2022/08/18 13:06:05;;;;;;;;;;;;;;;38.53;21.94;99248.34;4424404;32;37617;-81
2022/08/18 13:08:34;;;;;;;;;;;;;;;38.66;21.41;99251.38;4425827;32;37732;-81
2022/08/18 13:11:19;;;;;;;;;;;;;;;37.59;21.17;99254.87;4425143;32;37881;-81
2022/08/18 13:13:51;;;;;;;;;;;;;;;38.07;20.50;99256.06;4425019;32;39133;-81
2022/08/18 13:16:24;;;;;;;;;;;;;;;37.63;21.78;99251.69;4426054;32;35471;-80
2022/08/18 13:19:06;;;;;;;;;;;;;;;38.11;20.95;99254.72;4427928;32;39953;-81
2022/08/18 13:21:37;;;;;;;;;;;;;;;38.20;21.29;99237.50;4424940;32;38870;-80
2022/08/18 13:24:09;;;;;;;;;;;;;;;38.50;21.08;99248.69;4396532;32;38408;-81
2022/08/18 13:26:43;;;;;;;;;;;;;;;38.59;19.56;99239.56;4413314;32;37346;-81